DAH47D EDDN-DAOO
Flight info
| Callsign | DAH47D |
|---|---|
| Flight time | 2h 35m |
| Altitude | 33000 |
| Route | BOLSI1C BOLSI Y166 DKB N869 TEDGO/N0447F350 N869 MILPA T14 ONNOF UN852 VATIR N852 VERSO L129 ELKEM/N0441F360 |
| Aircraft | B738/M-SDE2E3FGHIRWXY/LB1 |
Departure
| Time | 2026-04-21 17:53 |
|---|---|
| Airport | Nuremberg Airport (EDDN) |
Arrival
| Time | 2026-04-21 20:29 |
|---|---|
| Airport | Oran Es-Sénia (Ahmed Ben Bella) International Airport (DAOO) |
| Time | Latitude | Longitude | Altitude | Speed | Heading |
|---|---|---|---|---|---|
| 2026-04-21 17:35 | 49.49516 | 11.07791 | 1034 ft | 0 kts | 188° |
| 2026-04-21 17:44 | 49.49527 | 11.07794 | 1034 ft | 3 kts | 188° |
| 2026-04-21 17:45 | 49.49545 | 11.07798 | 1035 ft | 3 kts | 201° |
| 2026-04-21 17:45 | 49.49561 | 11.07812 | 1035 ft | 3 kts | 231° |
| 2026-04-21 17:45 | 49.49569 | 11.07836 | 1036 ft | 3 kts | 260° |
| 2026-04-21 17:45 | 49.49570 | 11.07854 | 1036 ft | 0 kts | 279° |
| 2026-04-21 17:46 | 49.49571 | 11.07852 | 1036 ft | 2 kts | 279° |
| 2026-04-21 17:46 | 49.49578 | 11.07812 | 1036 ft | 5 kts | 287° |
| 2026-04-21 17:47 | 49.49581 | 11.07798 | 1036 ft | 0 kts | 286° |
| 2026-04-21 17:47 | 49.49587 | 11.07753 | 1036 ft | 10 kts | 281° |
| 2026-04-21 17:47 | 49.49599 | 11.07648 | 1036 ft | 10 kts | 278° |
| 2026-04-21 17:48 | 49.49610 | 11.07546 | 1035 ft | 10 kts | 279° |
| 2026-04-21 17:48 | 49.49620 | 11.07445 | 1034 ft | 9 kts | 279° |
| 2026-04-21 17:48 | 49.49628 | 11.07347 | 1033 ft | 9 kts | 277° |
| 2026-04-21 17:48 | 49.49640 | 11.07252 | 1033 ft | 9 kts | 296° |
| 2026-04-21 17:49 | 49.49669 | 11.07232 | 1034 ft | 4 kts | 0° |
| 2026-04-21 17:49 | 49.49699 | 11.07233 | 1035 ft | 6 kts | 355° |
| 2026-04-21 17:49 | 49.49739 | 11.07183 | 1036 ft | 8 kts | 294° |
| 2026-04-21 17:49 | 49.49748 | 11.07091 | 1034 ft | 10 kts | 278° |
| 2026-04-21 17:50 | 49.49760 | 11.06970 | 1031 ft | 13 kts | 278° |
| 2026-04-21 17:50 | 49.49776 | 11.06804 | 1029 ft | 18 kts | 278° |
| 2026-04-21 17:50 | 49.49796 | 11.06590 | 1027 ft | 22 kts | 278° |
| 2026-04-21 17:50 | 49.49821 | 11.06357 | 1030 ft | 22 kts | 280° |
| 2026-04-21 17:51 | 49.49836 | 11.06215 | 1029 ft | 12 kts | 279° |
| 2026-04-21 17:51 | 49.49849 | 11.06087 | 1030 ft | 12 kts | 278° |
| 2026-04-21 17:51 | 49.49864 | 11.06016 | 1032 ft | 6 kts | 302° |
| 2026-04-21 17:51 | 49.49894 | 11.05980 | 1033 ft | 6 kts | 334° |
| 2026-04-21 17:52 | 49.49929 | 11.05955 | 1033 ft | 6 kts | 336° |
| 2026-04-21 17:52 | 49.49974 | 11.05933 | 1032 ft | 8 kts | 351° |
| 2026-04-21 17:52 | 49.50027 | 11.05957 | 1031 ft | 8 kts | 49° |
| 2026-04-21 17:52 | 49.50044 | 11.06040 | 1032 ft | 11 kts | 94° |
| 2026-04-21 17:53 | 49.50004 | 11.06442 | 1031 ft | 71 kts | 98° |
| 2026-04-21 17:53 | 49.49899 | 11.07511 | 1045 ft | 129 kts | 98° |
| 2026-04-21 17:53 | 49.49739 | 11.09131 | 1084 ft | 173 kts | 98° |
| 2026-04-21 17:53 | 49.49556 | 11.10976 | 1705 ft | 174 kts | 99° |
| 2026-04-21 17:54 | 49.49377 | 11.12827 | 2395 ft | 175 kts | 97° |
| 2026-04-21 17:54 | 49.49222 | 11.14698 | 3044 ft | 177 kts | 97° |
| 2026-04-21 17:54 | 49.49066 | 11.16595 | 3626 ft | 183 kts | 98° |
| 2026-04-21 17:54 | 49.48855 | 11.18588 | 4139 ft | 193 kts | 101° |
| 2026-04-21 17:55 | 49.48522 | 11.20598 | 4789 ft | 193 kts | 110° |
| 2026-04-21 17:55 | 49.47984 | 11.22432 | 5533 ft | 188 kts | 122° |
| 2026-04-21 17:55 | 49.47096 | 11.24002 | 5851 ft | 205 kts | 142° |
| 2026-04-21 17:55 | 49.45751 | 11.24897 | 5987 ft | 223 kts | 178° |
| 2026-04-21 17:56 | 49.44155 | 11.24909 | 6168 ft | 242 kts | 183° |
| 2026-04-21 17:56 | 49.42419 | 11.24704 | 6406 ft | 261 kts | 186° |
| 2026-04-21 17:56 | 49.40550 | 11.24428 | 6779 ft | 276 kts | 186° |
| 2026-04-21 17:56 | 49.38623 | 11.24168 | 7499 ft | 279 kts | 185° |
| 2026-04-21 17:57 | 49.36685 | 11.23927 | 8284 ft | 281 kts | 185° |
| 2026-04-21 17:57 | 49.34720 | 11.23694 | 9019 ft | 284 kts | 185° |
| 2026-04-21 17:57 | 49.32779 | 11.23146 | 9676 ft | 287 kts | 204° |
| 2026-04-21 17:57 | 49.31168 | 11.21356 | 10316 ft | 292 kts | 231° |
| 2026-04-21 17:58 | 49.30206 | 11.18531 | 10516 ft | 312 kts | 253° |
| 2026-04-21 17:58 | 49.29626 | 11.15203 | 10711 ft | 333 kts | 256° |
| 2026-04-21 17:58 | 49.29070 | 11.11675 | 11143 ft | 344 kts | 257° |
| 2026-04-21 17:58 | 49.28509 | 11.08087 | 11779 ft | 348 kts | 256° |
| 2026-04-21 17:59 | 49.27942 | 11.04514 | 12459 ft | 351 kts | 256° |
| 2026-04-21 17:59 | 49.27352 | 11.00866 | 13112 ft | 354 kts | 256° |
| 2026-04-21 17:59 | 49.26749 | 10.97195 | 13747 ft | 358 kts | 256° |
| 2026-04-21 17:59 | 49.26134 | 10.93484 | 14367 ft | 361 kts | 256° |
| 2026-04-21 18:00 | 49.25510 | 10.89738 | 14976 ft | 365 kts | 256° |
| 2026-04-21 18:00 | 49.24880 | 10.85964 | 15572 ft | 368 kts | 256° |
| 2026-04-21 18:00 | 49.24243 | 10.82161 | 16157 ft | 371 kts | 256° |
| 2026-04-21 18:00 | 49.23596 | 10.78310 | 16729 ft | 374 kts | 256° |
| 2026-04-21 18:01 | 49.22943 | 10.74434 | 17280 ft | 378 kts | 256° |
| 2026-04-21 18:01 | 49.22282 | 10.70531 | 17826 ft | 381 kts | 255° |
| 2026-04-21 18:01 | 49.21614 | 10.66592 | 18355 ft | 384 kts | 255° |
| 2026-04-21 18:01 | 49.20939 | 10.62622 | 18872 ft | 387 kts | 255° |
| 2026-04-21 18:02 | 49.20266 | 10.58664 | 19382 ft | 390 kts | 255° |
| 2026-04-21 18:02 | 49.19577 | 10.54628 | 19892 ft | 393 kts | 255° |
| 2026-04-21 18:02 | 49.18815 | 10.50605 | 20344 ft | 396 kts | 247° |
| 2026-04-21 18:02 | 49.17506 | 10.46894 | 20806 ft | 399 kts | 238° |
| 2026-04-21 18:03 | 49.15968 | 10.43349 | 21284 ft | 401 kts | 236° |
| 2026-04-21 18:03 | 49.14374 | 10.39830 | 21720 ft | 404 kts | 235° |
| 2026-04-21 18:03 | 49.12754 | 10.36292 | 22145 ft | 407 kts | 235° |
| 2026-04-21 18:03 | 49.11123 | 10.32747 | 22568 ft | 410 kts | 235° |
| 2026-04-21 18:04 | 49.09473 | 10.29173 | 22984 ft | 413 kts | 235° |
| 2026-04-21 18:04 | 49.07813 | 10.25582 | 23385 ft | 415 kts | 235° |
| 2026-04-21 18:04 | 49.06144 | 10.21978 | 23774 ft | 418 kts | 235° |
| 2026-04-21 18:04 | 49.04461 | 10.18348 | 24157 ft | 420 kts | 235° |
| 2026-04-21 18:05 | 49.02766 | 10.14695 | 24527 ft | 423 kts | 235° |
| 2026-04-21 18:05 | 49.01061 | 10.11024 | 24894 ft | 425 kts | 235° |
| 2026-04-21 18:05 | 48.99341 | 10.07356 | 25251 ft | 427 kts | 232° |
| 2026-04-21 18:05 | 48.97189 | 10.04238 | 25550 ft | 431 kts | 214° |
| 2026-04-21 18:06 | 48.94654 | 10.01891 | 25912 ft | 432 kts | 210° |
| 2026-04-21 18:06 | 48.92032 | 9.99646 | 26247 ft | 434 kts | 209° |
| 2026-04-21 18:06 | 48.89380 | 9.97419 | 26549 ft | 436 kts | 209° |
| 2026-04-21 18:06 | 48.86715 | 9.95195 | 26836 ft | 439 kts | 209° |
| 2026-04-21 18:07 | 48.84033 | 9.92956 | 27142 ft | 441 kts | 211° |
| 2026-04-21 18:07 | 48.81610 | 9.90104 | 27406 ft | 442 kts | 225° |
| 2026-04-21 18:07 | 48.79522 | 9.86680 | 27727 ft | 443 kts | 229° |
| 2026-04-21 18:07 | 48.77557 | 9.83061 | 27991 ft | 445 kts | 235° |
| 2026-04-21 18:08 | 48.75980 | 9.79007 | 28233 ft | 448 kts | 246° |
| 2026-04-21 18:08 | 48.74799 | 9.74635 | 28474 ft | 450 kts | 249° |
| 2026-04-21 18:08 | 48.73666 | 9.70208 | 28743 ft | 451 kts | 249° |
| 2026-04-21 18:08 | 48.72528 | 9.65770 | 29017 ft | 452 kts | 249° |
| 2026-04-21 18:09 | 48.71373 | 9.61338 | 29282 ft | 454 kts | 248° |
| 2026-04-21 18:09 | 48.70197 | 9.56893 | 29525 ft | 455 kts | 248° |
| 2026-04-21 18:09 | 48.69011 | 9.52457 | 29814 ft | 455 kts | 248° |
| 2026-04-21 18:09 | 48.67817 | 9.48021 | 30152 ft | 454 kts | 248° |
| 2026-04-21 18:10 | 48.66625 | 9.43601 | 30513 ft | 452 kts | 248° |
| 2026-04-21 18:10 | 48.65436 | 9.39198 | 30835 ft | 451 kts | 248° |
| 2026-04-21 18:10 | 48.64250 | 9.34810 | 31110 ft | 451 kts | 248° |
| 2026-04-21 18:10 | 48.63056 | 9.30419 | 31394 ft | 451 kts | 246° |
| 2026-04-21 18:11 | 48.61601 | 9.26232 | 31642 ft | 451 kts | 237° |
| 2026-04-21 18:11 | 48.59737 | 9.22423 | 31910 ft | 451 kts | 227° |
| 2026-04-21 18:11 | 48.57573 | 9.18995 | 32183 ft | 450 kts | 226° |
| 2026-04-21 18:11 | 48.55373 | 9.15634 | 32437 ft | 450 kts | 225° |
| 2026-04-21 18:12 | 48.53168 | 9.12295 | 32691 ft | 449 kts | 225° |
| 2026-04-21 18:12 | 48.50966 | 9.08953 | 32949 ft | 449 kts | 225° |
| 2026-04-21 18:12 | 48.48773 | 9.05608 | 33193 ft | 448 kts | 225° |
| 2026-04-21 18:12 | 48.46584 | 9.02254 | 33426 ft | 448 kts | 226° |
| 2026-04-21 18:13 | 48.44405 | 8.98903 | 33646 ft | 448 kts | 226° |
| 2026-04-21 18:13 | 48.42224 | 8.95545 | 33871 ft | 448 kts | 226° |
| 2026-04-21 18:13 | 48.40052 | 8.92200 | 34223 ft | 444 kts | 226° |
| 2026-04-21 18:13 | 48.37908 | 8.88901 | 34598 ft | 439 kts | 226° |
| 2026-04-21 18:14 | 48.33687 | 8.82417 | 34975 ft | 439 kts | 226° |
| 2026-04-21 18:14 | 48.31543 | 8.79131 | 35007 ft | 441 kts | 226° |
| 2026-04-21 18:15 | 48.27209 | 8.72502 | 35019 ft | 448 kts | 225° |
| 2026-04-21 18:15 | 48.22823 | 8.65811 | 35014 ft | 451 kts | 225° |
| 2026-04-21 18:15 | 48.20606 | 8.62448 | 36069 ft | 453 kts | 230° |
| 2026-04-21 18:16 | 48.18393 | 8.59095 | 35797 ft | 448 kts | 231° |
| 2026-04-21 18:16 | 48.16220 | 8.55799 | 35550 ft | 441 kts | 231° |
| 2026-04-21 18:16 | 48.14079 | 8.52553 | 35362 ft | 436 kts | 231° |
| 2026-04-21 18:17 | 48.09835 | 8.46121 | 35207 ft | 432 kts | 231° |
| 2026-04-21 18:17 | 48.05617 | 8.39744 | 35153 ft | 431 kts | 232° |
| 2026-04-21 18:18 | 48.01367 | 8.33330 | 35151 ft | 438 kts | 232° |
| 2026-04-21 18:18 | 47.97079 | 8.26883 | 35140 ft | 441 kts | 232° |
| 2026-04-21 18:19 | 47.92736 | 8.20378 | 35137 ft | 443 kts | 232° |
| 2026-04-21 18:19 | 47.88387 | 8.13880 | 35126 ft | 442 kts | 232° |
| 2026-04-21 18:20 | 47.84081 | 8.07471 | 35103 ft | 433 kts | 232° |
| 2026-04-21 18:20 | 47.79838 | 8.01161 | 35114 ft | 431 kts | 232° |
| 2026-04-21 18:21 | 47.75593 | 7.94857 | 35105 ft | 431 kts | 232° |
| 2026-04-21 18:21 | 47.71348 | 7.88571 | 35097 ft | 431 kts | 232° |
| 2026-04-21 18:22 | 47.67089 | 7.82280 | 35072 ft | 432 kts | 232° |
| 2026-04-21 18:22 | 47.62828 | 7.76005 | 35068 ft | 432 kts | 232° |
| 2026-04-21 18:23 | 47.58564 | 7.69740 | 35071 ft | 431 kts | 232° |
| 2026-04-21 18:23 | 47.54325 | 7.63526 | 35072 ft | 431 kts | 233° |
| 2026-04-21 18:24 | 47.52413 | 7.60730 | 35074 ft | 431 kts | 233° |
| 2026-04-21 18:24 | 47.48155 | 7.54511 | 35069 ft | 430 kts | 233° |
| 2026-04-21 18:25 | 47.43898 | 7.48308 | 35061 ft | 428 kts | 233° |
| 2026-04-21 18:25 | 47.39657 | 7.42145 | 35057 ft | 427 kts | 233° |
| 2026-04-21 18:26 | 47.35421 | 7.35999 | 35044 ft | 426 kts | 233° |
| 2026-04-21 18:26 | 47.31194 | 7.29882 | 35053 ft | 426 kts | 233° |
| 2026-04-21 18:27 | 47.26957 | 7.23765 | 35045 ft | 426 kts | 233° |
| 2026-04-21 18:27 | 47.22747 | 7.17703 | 35045 ft | 425 kts | 233° |
| 2026-04-21 18:28 | 47.18514 | 7.11623 | 35037 ft | 425 kts | 233° |
| 2026-04-21 18:28 | 47.14284 | 7.05559 | 35044 ft | 425 kts | 233° |
| 2026-04-21 18:29 | 47.10048 | 6.99502 | 35056 ft | 425 kts | 233° |
| 2026-04-21 18:29 | 47.05799 | 6.93441 | 35042 ft | 425 kts | 232° |
| 2026-04-21 18:30 | 47.01559 | 6.87408 | 35048 ft | 424 kts | 232° |
| 2026-04-21 18:30 | 46.98036 | 6.82406 | 35047 ft | 424 kts | 232° |
| 2026-04-21 18:31 | 46.93801 | 6.76404 | 35039 ft | 424 kts | 232° |
| 2026-04-21 18:31 | 46.89562 | 6.70411 | 35022 ft | 422 kts | 232° |
| 2026-04-21 18:32 | 46.85336 | 6.64450 | 35036 ft | 422 kts | 232° |
| 2026-04-21 18:32 | 46.81100 | 6.58486 | 35035 ft | 423 kts | 232° |
| 2026-04-21 18:33 | 46.76865 | 6.52539 | 35031 ft | 423 kts | 232° |
| 2026-04-21 18:33 | 46.72642 | 6.46623 | 35025 ft | 424 kts | 232° |
| 2026-04-21 18:34 | 46.68388 | 6.40677 | 35025 ft | 424 kts | 232° |
| 2026-04-21 18:34 | 46.64119 | 6.34724 | 35016 ft | 425 kts | 232° |
| 2026-04-21 18:35 | 46.59850 | 6.28786 | 35021 ft | 424 kts | 232° |
| 2026-04-21 18:35 | 46.55580 | 6.22858 | 35006 ft | 425 kts | 232° |
| 2026-04-21 18:36 | 46.51312 | 6.16948 | 35004 ft | 423 kts | 232° |
| 2026-04-21 18:36 | 46.47068 | 6.11088 | 35008 ft | 419 kts | 232° |
| 2026-04-21 18:37 | 46.42838 | 6.05252 | 34995 ft | 419 kts | 232° |
| 2026-04-21 18:37 | 46.38616 | 5.99439 | 34987 ft | 418 kts | 232° |
| 2026-04-21 18:38 | 46.34418 | 5.93675 | 34996 ft | 419 kts | 232° |
| 2026-04-21 18:38 | 46.32196 | 5.90920 | 34977 ft | 429 kts | 221° |
| 2026-04-21 18:38 | 46.29453 | 5.89021 | 35009 ft | 446 kts | 205° |
| 2026-04-21 18:38 | 46.26352 | 5.88185 | 34975 ft | 465 kts | 187° |
| 2026-04-21 18:39 | 46.23094 | 5.88406 | 35014 ft | 470 kts | 182° |
| 2026-04-21 18:39 | 46.16544 | 5.89270 | 34990 ft | 472 kts | 182° |
| 2026-04-21 18:40 | 46.10010 | 5.90008 | 35004 ft | 471 kts | 183° |
| 2026-04-21 18:40 | 46.04564 | 5.90537 | 34989 ft | 473 kts | 183° |
| 2026-04-21 18:41 | 45.96867 | 5.91268 | 34986 ft | 474 kts | 183° |
| 2026-04-21 18:41 | 45.90280 | 5.91908 | 34985 ft | 474 kts | 183° |
| 2026-04-21 18:42 | 45.83694 | 5.92560 | 34983 ft | 474 kts | 183° |
| 2026-04-21 18:42 | 45.77115 | 5.93210 | 34966 ft | 474 kts | 183° |
| 2026-04-21 18:43 | 45.70540 | 5.93855 | 34964 ft | 474 kts | 183° |
| 2026-04-21 18:43 | 45.63997 | 5.94494 | 34968 ft | 474 kts | 183° |
| 2026-04-21 18:44 | 45.57408 | 5.95136 | 34956 ft | 475 kts | 183° |
| 2026-04-21 18:44 | 45.50826 | 5.95778 | 34958 ft | 473 kts | 183° |
| 2026-04-21 18:45 | 45.44405 | 5.95221 | 34958 ft | 453 kts | 200° |
| 2026-04-21 18:45 | 45.38265 | 5.93233 | 34950 ft | 452 kts | 201° |
| 2026-04-21 18:46 | 45.32105 | 5.91213 | 34948 ft | 458 kts | 200° |
| 2026-04-21 18:46 | 45.25924 | 5.89267 | 34952 ft | 451 kts | 200° |
| 2026-04-21 18:47 | 45.19792 | 5.87364 | 34963 ft | 451 kts | 200° |
| 2026-04-21 18:47 | 45.13648 | 5.85459 | 34965 ft | 453 kts | 200° |
| 2026-04-21 18:48 | 45.07486 | 5.83553 | 34970 ft | 454 kts | 200° |
| 2026-04-21 18:48 | 45.01347 | 5.81659 | 34956 ft | 454 kts | 200° |
| 2026-04-21 18:49 | 44.95122 | 5.79743 | 34954 ft | 454 kts | 200° |
| 2026-04-21 18:49 | 44.90004 | 5.78171 | 34949 ft | 452 kts | 200° |
| 2026-04-21 18:50 | 44.82858 | 5.75979 | 34951 ft | 451 kts | 200° |
| 2026-04-21 18:50 | 44.76735 | 5.74106 | 34943 ft | 450 kts | 200° |
| 2026-04-21 18:51 | 44.71661 | 5.72557 | 34944 ft | 448 kts | 200° |
| 2026-04-21 18:51 | 44.64551 | 5.70388 | 34939 ft | 447 kts | 199° |
| 2026-04-21 18:52 | 44.58474 | 5.68541 | 34938 ft | 446 kts | 199° |
| 2026-04-21 18:52 | 44.52451 | 5.66717 | 34921 ft | 446 kts | 199° |
| 2026-04-21 18:53 | 44.46401 | 5.64886 | 34922 ft | 444 kts | 199° |
| 2026-04-21 18:53 | 44.40374 | 5.63067 | 34916 ft | 443 kts | 199° |
| 2026-04-21 18:54 | 44.34542 | 5.60600 | 34927 ft | 434 kts | 209° |
| 2026-04-21 18:54 | 44.28935 | 5.57432 | 34902 ft | 435 kts | 209° |
| 2026-04-21 18:55 | 44.24262 | 5.54824 | 34911 ft | 436 kts | 209° |
| 2026-04-21 18:55 | 44.17657 | 5.51211 | 34904 ft | 437 kts | 208° |
| 2026-04-21 18:56 | 44.11986 | 5.48119 | 34904 ft | 438 kts | 208° |
| 2026-04-21 18:56 | 44.06313 | 5.45025 | 34907 ft | 438 kts | 208° |
| 2026-04-21 18:57 | 44.00619 | 5.41945 | 34896 ft | 439 kts | 208° |
| 2026-04-21 18:57 | 43.94931 | 5.38875 | 34894 ft | 438 kts | 208° |
| 2026-04-21 18:58 | 43.89260 | 5.35810 | 34886 ft | 437 kts | 208° |
| 2026-04-21 18:58 | 43.83633 | 5.32771 | 34892 ft | 436 kts | 208° |
| 2026-04-21 18:59 | 43.77993 | 5.29731 | 34882 ft | 435 kts | 208° |
| 2026-04-21 18:59 | 43.72360 | 5.26701 | 34883 ft | 433 kts | 208° |
| 2026-04-21 19:00 | 43.66748 | 5.23689 | 34881 ft | 432 kts | 208° |
| 2026-04-21 19:00 | 43.61149 | 5.20690 | 34883 ft | 431 kts | 208° |
| 2026-04-21 19:01 | 43.56497 | 5.18202 | 34884 ft | 431 kts | 208° |
| 2026-04-21 19:01 | 43.49964 | 5.14715 | 34884 ft | 431 kts | 208° |
| 2026-04-21 19:02 | 43.44366 | 5.11733 | 34884 ft | 431 kts | 208° |
| 2026-04-21 19:02 | 43.38795 | 5.08673 | 34880 ft | 428 kts | 213° |
| 2026-04-21 19:03 | 43.33856 | 5.04340 | 34890 ft | 420 kts | 221° |
| 2026-04-21 19:03 | 43.29069 | 4.99724 | 34896 ft | 421 kts | 221° |
| 2026-04-21 19:04 | 43.24286 | 4.95176 | 34901 ft | 422 kts | 220° |
| 2026-04-21 19:04 | 43.19444 | 4.90624 | 34906 ft | 422 kts | 220° |
| 2026-04-21 19:05 | 43.15416 | 4.86852 | 34905 ft | 422 kts | 220° |
| 2026-04-21 19:05 | 43.09750 | 4.81552 | 34912 ft | 421 kts | 220° |
| 2026-04-21 19:06 | 43.04881 | 4.77077 | 34908 ft | 423 kts | 216° |
| 2026-04-21 19:06 | 42.99745 | 4.73114 | 34914 ft | 424 kts | 214° |
| 2026-04-21 19:07 | 42.94568 | 4.69263 | 34906 ft | 423 kts | 214° |
| 2026-04-21 19:07 | 42.89408 | 4.65402 | 34911 ft | 423 kts | 214° |
| 2026-04-21 19:08 | 42.84266 | 4.61530 | 34909 ft | 422 kts | 214° |
| 2026-04-21 19:08 | 42.79161 | 4.57681 | 34907 ft | 422 kts | 214° |
| 2026-04-21 19:09 | 42.74022 | 4.53813 | 34905 ft | 422 kts | 214° |
| 2026-04-21 19:09 | 42.68884 | 4.49954 | 34919 ft | 422 kts | 214° |
| 2026-04-21 19:10 | 42.63739 | 4.46097 | 34918 ft | 423 kts | 214° |
| 2026-04-21 19:10 | 42.58580 | 4.42238 | 34918 ft | 424 kts | 213° |
| 2026-04-21 19:11 | 42.53407 | 4.38374 | 34917 ft | 425 kts | 213° |
| 2026-04-21 19:11 | 42.48224 | 4.34512 | 34918 ft | 426 kts | 213° |
| 2026-04-21 19:12 | 42.43907 | 4.31300 | 34921 ft | 427 kts | 213° |
| 2026-04-21 19:12 | 42.37808 | 4.26771 | 34920 ft | 428 kts | 213° |
| 2026-04-21 19:13 | 42.32603 | 4.22914 | 34918 ft | 430 kts | 213° |
| 2026-04-21 19:13 | 42.27343 | 4.19023 | 34915 ft | 431 kts | 213° |
| 2026-04-21 19:14 | 42.22089 | 4.15143 | 34919 ft | 431 kts | 213° |
| 2026-04-21 19:14 | 42.16744 | 4.11417 | 34913 ft | 435 kts | 206° |
| 2026-04-21 19:15 | 42.10886 | 4.09137 | 34918 ft | 439 kts | 198° |
| 2026-04-21 19:15 | 42.04960 | 4.07118 | 34916 ft | 439 kts | 198° |
| 2026-04-21 19:16 | 41.99052 | 4.05071 | 34921 ft | 438 kts | 199° |
| 2026-04-21 19:16 | 41.94147 | 4.03342 | 34921 ft | 437 kts | 199° |
| 2026-04-21 19:17 | 41.84378 | 3.99878 | 34922 ft | 436 kts | 199° |
| 2026-04-21 19:17 | 41.79530 | 3.97947 | 34916 ft | 431 kts | 207° |
| 2026-04-21 19:18 | 41.73328 | 3.93829 | 34922 ft | 427 kts | 212° |
| 2026-04-21 19:18 | 41.68080 | 3.90094 | 34927 ft | 427 kts | 212° |
| 2026-04-21 19:19 | 41.62850 | 3.86348 | 34922 ft | 426 kts | 212° |
| 2026-04-21 19:19 | 41.58498 | 3.83223 | 34930 ft | 427 kts | 212° |
| 2026-04-21 19:20 | 41.53270 | 3.79469 | 34927 ft | 427 kts | 212° |
| 2026-04-21 19:20 | 41.48035 | 3.75709 | 34934 ft | 427 kts | 212° |
| 2026-04-21 19:21 | 41.42799 | 3.71946 | 34935 ft | 428 kts | 212° |
| 2026-04-21 19:21 | 41.37559 | 3.68180 | 34935 ft | 428 kts | 212° |
| 2026-04-21 19:22 | 41.32304 | 3.64405 | 34927 ft | 429 kts | 212° |
| 2026-04-21 19:22 | 41.27051 | 3.60633 | 34936 ft | 429 kts | 212° |
| 2026-04-21 19:23 | 41.21794 | 3.56861 | 34933 ft | 429 kts | 212° |
| 2026-04-21 19:23 | 41.16570 | 3.53115 | 34932 ft | 429 kts | 212° |
| 2026-04-21 19:24 | 41.11284 | 3.49329 | 34944 ft | 429 kts | 212° |
| 2026-04-21 19:24 | 41.06036 | 3.45576 | 34928 ft | 428 kts | 212° |
| 2026-04-21 19:25 | 41.00825 | 3.41847 | 34938 ft | 428 kts | 212° |
| 2026-04-21 19:25 | 40.95590 | 3.38100 | 34942 ft | 427 kts | 212° |
| 2026-04-21 19:26 | 40.90360 | 3.34352 | 34932 ft | 427 kts | 212° |
| 2026-04-21 19:26 | 40.85147 | 3.30609 | 34938 ft | 426 kts | 212° |
| 2026-04-21 19:27 | 40.79941 | 3.26867 | 34937 ft | 426 kts | 212° |
| 2026-04-21 19:27 | 40.74738 | 3.23120 | 34940 ft | 426 kts | 212° |
| 2026-04-21 19:28 | 40.69540 | 3.19370 | 34935 ft | 425 kts | 212° |
| 2026-04-21 19:28 | 40.64349 | 3.15622 | 34936 ft | 425 kts | 212° |
| 2026-04-21 19:29 | 40.59159 | 3.11871 | 34941 ft | 425 kts | 212° |
| 2026-04-21 19:29 | 40.53969 | 3.08115 | 34938 ft | 426 kts | 212° |
| 2026-04-21 19:30 | 40.48774 | 3.04354 | 34938 ft | 426 kts | 212° |
| 2026-04-21 19:30 | 40.43584 | 3.00596 | 34935 ft | 426 kts | 212° |
| 2026-04-21 19:31 | 40.38428 | 2.96863 | 34930 ft | 426 kts | 212° |
| 2026-04-21 19:31 | 40.33236 | 2.93110 | 34937 ft | 426 kts | 212° |
| 2026-04-21 19:32 | 40.28038 | 2.89359 | 34933 ft | 426 kts | 212° |
| 2026-04-21 19:32 | 40.22849 | 2.85623 | 34930 ft | 425 kts | 212° |
| 2026-04-21 19:33 | 40.17660 | 2.81898 | 34930 ft | 425 kts | 212° |
| 2026-04-21 19:33 | 40.12483 | 2.78195 | 34927 ft | 424 kts | 212° |
| 2026-04-21 19:34 | 40.07309 | 2.74509 | 34930 ft | 423 kts | 212° |
| 2026-04-21 19:34 | 40.02150 | 2.70845 | 34927 ft | 422 kts | 212° |
| 2026-04-21 19:35 | 39.94421 | 2.65379 | 34929 ft | 421 kts | 212° |
| 2026-04-21 19:36 | 39.89279 | 2.61758 | 34928 ft | 420 kts | 212° |
| 2026-04-21 19:36 | 39.84134 | 2.58148 | 34931 ft | 420 kts | 212° |
| 2026-04-21 19:37 | 39.79028 | 2.54578 | 34933 ft | 419 kts | 212° |
| 2026-04-21 19:37 | 39.73852 | 2.50972 | 34934 ft | 419 kts | 212° |
| 2026-04-21 19:38 | 39.68740 | 2.47422 | 34933 ft | 420 kts | 212° |
| 2026-04-21 19:38 | 39.63582 | 2.43851 | 34940 ft | 420 kts | 212° |
| 2026-04-21 19:39 | 39.58420 | 2.40285 | 34931 ft | 421 kts | 212° |
| 2026-04-21 19:39 | 39.53244 | 2.36714 | 34927 ft | 421 kts | 212° |
| 2026-04-21 19:40 | 39.48074 | 2.33153 | 34927 ft | 421 kts | 212° |
| 2026-04-21 19:40 | 39.42907 | 2.29598 | 34923 ft | 421 kts | 212° |
| 2026-04-21 19:41 | 39.37742 | 2.26049 | 34925 ft | 420 kts | 212° |
| 2026-04-21 19:41 | 39.32573 | 2.22506 | 34925 ft | 420 kts | 212° |
| 2026-04-21 19:42 | 39.27408 | 2.18975 | 34924 ft | 419 kts | 212° |
| 2026-04-21 19:42 | 39.22253 | 2.15458 | 34928 ft | 419 kts | 212° |
| 2026-04-21 19:43 | 39.17098 | 2.11949 | 34925 ft | 418 kts | 212° |
| 2026-04-21 19:43 | 39.11956 | 2.08457 | 34923 ft | 418 kts | 212° |
| 2026-04-21 19:44 | 39.06820 | 2.04980 | 34933 ft | 417 kts | 212° |
| 2026-04-21 19:44 | 39.01684 | 2.01512 | 34927 ft | 416 kts | 212° |
| 2026-04-21 19:45 | 38.96588 | 1.98081 | 34924 ft | 416 kts | 212° |
| 2026-04-21 19:45 | 38.91467 | 1.94642 | 34924 ft | 415 kts | 212° |
| 2026-04-21 19:46 | 38.86350 | 1.91215 | 34917 ft | 415 kts | 212° |
| 2026-04-21 19:46 | 38.81237 | 1.87801 | 34927 ft | 414 kts | 212° |
| 2026-04-21 19:47 | 38.75750 | 1.85446 | 34925 ft | 426 kts | 190° |
| 2026-04-21 19:47 | 38.69839 | 1.84780 | 34924 ft | 426 kts | 191° |
| 2026-04-21 19:48 | 38.63931 | 1.84014 | 34916 ft | 426 kts | 191° |
| 2026-04-21 19:48 | 38.58032 | 1.83191 | 34917 ft | 426 kts | 192° |
| 2026-04-21 19:49 | 38.52131 | 1.82356 | 34916 ft | 426 kts | 192° |
| 2026-04-21 19:49 | 38.46227 | 1.81524 | 34918 ft | 427 kts | 192° |
| 2026-04-21 19:50 | 38.41315 | 1.80834 | 34918 ft | 427 kts | 192° |
| 2026-04-21 19:50 | 38.34450 | 1.79872 | 34915 ft | 427 kts | 192° |
| 2026-04-21 19:51 | 38.28538 | 1.79045 | 34914 ft | 427 kts | 192° |
| 2026-04-21 19:51 | 38.22634 | 1.78220 | 34913 ft | 427 kts | 192° |
| 2026-04-21 19:52 | 38.16784 | 1.77122 | 34899 ft | 420 kts | 201° |
| 2026-04-21 19:52 | 38.11530 | 1.74170 | 34899 ft | 409 kts | 218° |
| 2026-04-21 19:53 | 38.06945 | 1.69968 | 34908 ft | 406 kts | 220° |
| 2026-04-21 19:53 | 38.02365 | 1.65752 | 34906 ft | 406 kts | 220° |
| 2026-04-21 19:54 | 37.97781 | 1.61563 | 34904 ft | 406 kts | 220° |
| 2026-04-21 19:54 | 37.93216 | 1.57412 | 34904 ft | 406 kts | 219° |
| 2026-04-21 19:55 | 37.88618 | 1.53243 | 34903 ft | 406 kts | 219° |
| 2026-04-21 19:55 | 37.84023 | 1.49082 | 34905 ft | 406 kts | 219° |
| 2026-04-21 19:56 | 37.79429 | 1.44930 | 34905 ft | 406 kts | 219° |
| 2026-04-21 19:56 | 37.74831 | 1.40779 | 34907 ft | 406 kts | 219° |
| 2026-04-21 19:57 | 37.70236 | 1.36639 | 34905 ft | 406 kts | 219° |
| 2026-04-21 19:57 | 37.65641 | 1.32505 | 34903 ft | 406 kts | 219° |
| 2026-04-21 19:58 | 37.61042 | 1.28372 | 34910 ft | 405 kts | 219° |
| 2026-04-21 19:58 | 37.56447 | 1.24251 | 34906 ft | 405 kts | 219° |
| 2026-04-21 19:59 | 37.51848 | 1.20132 | 34904 ft | 405 kts | 219° |
| 2026-04-21 19:59 | 37.47290 | 1.16057 | 34892 ft | 399 kts | 219° |
| 2026-04-21 20:00 | 37.42828 | 1.12078 | 34890 ft | 390 kts | 219° |
| 2026-04-21 20:00 | 37.38415 | 1.08141 | 34693 ft | 391 kts | 219° |
| 2026-04-21 20:00 | 37.36207 | 1.06173 | 34444 ft | 386 kts | 219° |
| 2026-04-21 20:01 | 37.34025 | 1.04233 | 34042 ft | 383 kts | 219° |
| 2026-04-21 20:01 | 37.31861 | 1.02309 | 33631 ft | 379 kts | 219° |
| 2026-04-21 20:01 | 37.29714 | 1.00401 | 33229 ft | 376 kts | 219° |
| 2026-04-21 20:01 | 37.27588 | 0.98514 | 32846 ft | 373 kts | 219° |
| 2026-04-21 20:02 | 37.26161 | 0.97247 | 32589 ft | 371 kts | 219° |
| 2026-04-21 20:02 | 37.23379 | 0.94780 | 32088 ft | 367 kts | 219° |
| 2026-04-21 20:02 | 37.21299 | 0.92937 | 31718 ft | 364 kts | 219° |
| 2026-04-21 20:02 | 37.19238 | 0.91112 | 31357 ft | 362 kts | 219° |
| 2026-04-21 20:03 | 37.17187 | 0.89296 | 30995 ft | 359 kts | 219° |
| 2026-04-21 20:03 | 37.15148 | 0.87493 | 30630 ft | 357 kts | 219° |
| 2026-04-21 20:03 | 37.13125 | 0.85705 | 30277 ft | 355 kts | 219° |
| 2026-04-21 20:03 | 37.11108 | 0.83923 | 29921 ft | 354 kts | 219° |
| 2026-04-21 20:04 | 37.09102 | 0.82152 | 29510 ft | 351 kts | 219° |
| 2026-04-21 20:04 | 37.07109 | 0.80394 | 29114 ft | 349 kts | 219° |
| 2026-04-21 20:04 | 37.05161 | 0.78678 | 28745 ft | 346 kts | 219° |
| 2026-04-21 20:04 | 37.03201 | 0.76951 | 28382 ft | 343 kts | 219° |
| 2026-04-21 20:05 | 37.01256 | 0.75239 | 28012 ft | 340 kts | 219° |
| 2026-04-21 20:05 | 36.99332 | 0.73547 | 27660 ft | 337 kts | 219° |
| 2026-04-21 20:05 | 36.97412 | 0.71858 | 27297 ft | 336 kts | 219° |
| 2026-04-21 20:05 | 36.95508 | 0.70185 | 26951 ft | 334 kts | 219° |
| 2026-04-21 20:06 | 36.93605 | 0.68512 | 26604 ft | 335 kts | 218° |
| 2026-04-21 20:06 | 36.92336 | 0.67397 | 26381 ft | 340 kts | 218° |
| 2026-04-21 20:06 | 36.90369 | 0.65668 | 26032 ft | 350 kts | 218° |
| 2026-04-21 20:06 | 36.88372 | 0.63914 | 25644 ft | 351 kts | 218° |
| 2026-04-21 20:07 | 36.86374 | 0.62165 | 25260 ft | 349 kts | 218° |
| 2026-04-21 20:07 | 36.84387 | 0.60427 | 24894 ft | 348 kts | 218° |
| 2026-04-21 20:07 | 36.82409 | 0.58698 | 24528 ft | 346 kts | 218° |
| 2026-04-21 20:07 | 36.80444 | 0.56981 | 24155 ft | 345 kts | 217° |
| 2026-04-21 20:08 | 36.78480 | 0.55265 | 23793 ft | 344 kts | 217° |
| 2026-04-21 20:08 | 36.76522 | 0.53556 | 23406 ft | 343 kts | 217° |
| 2026-04-21 20:08 | 36.74570 | 0.51852 | 22994 ft | 341 kts | 217° |
| 2026-04-21 20:08 | 36.72632 | 0.50163 | 22602 ft | 339 kts | 217° |
| 2026-04-21 20:09 | 36.70703 | 0.48482 | 22230 ft | 337 kts | 217° |
| 2026-04-21 20:09 | 36.68783 | 0.46810 | 21868 ft | 335 kts | 217° |
| 2026-04-21 20:09 | 36.66880 | 0.45153 | 21511 ft | 332 kts | 217° |
| 2026-04-21 20:09 | 36.64994 | 0.43512 | 21157 ft | 330 kts | 217° |
| 2026-04-21 20:10 | 36.63115 | 0.41879 | 20808 ft | 328 kts | 217° |
| 2026-04-21 20:10 | 36.61272 | 0.40278 | 20465 ft | 326 kts | 217° |
| 2026-04-21 20:10 | 36.59390 | 0.38643 | 20117 ft | 325 kts | 217° |
| 2026-04-21 20:10 | 36.57545 | 0.37042 | 19772 ft | 323 kts | 217° |
| 2026-04-21 20:11 | 36.55729 | 0.35466 | 19436 ft | 322 kts | 217° |
| 2026-04-21 20:11 | 36.53895 | 0.33876 | 19094 ft | 320 kts | 217° |
| 2026-04-21 20:11 | 36.52071 | 0.32296 | 18759 ft | 319 kts | 217° |
| 2026-04-21 20:11 | 36.50248 | 0.30717 | 18413 ft | 319 kts | 217° |
| 2026-04-21 20:12 | 36.48432 | 0.29146 | 18049 ft | 318 kts | 217° |
| 2026-04-21 20:12 | 36.46618 | 0.27577 | 17669 ft | 317 kts | 217° |
| 2026-04-21 20:12 | 36.44811 | 0.26015 | 17313 ft | 315 kts | 217° |
| 2026-04-21 20:12 | 36.43017 | 0.24466 | 16965 ft | 314 kts | 217° |
| 2026-04-21 20:13 | 36.41229 | 0.22922 | 16627 ft | 312 kts | 217° |
| 2026-04-21 20:13 | 36.39452 | 0.21389 | 16290 ft | 310 kts | 217° |
| 2026-04-21 20:13 | 36.37681 | 0.19862 | 15953 ft | 309 kts | 217° |
| 2026-04-21 20:13 | 36.35919 | 0.18343 | 15621 ft | 308 kts | 217° |
| 2026-04-21 20:14 | 36.34163 | 0.16830 | 15290 ft | 306 kts | 217° |
| 2026-04-21 20:14 | 36.32417 | 0.15327 | 14959 ft | 305 kts | 217° |
| 2026-04-21 20:14 | 36.30673 | 0.13826 | 14628 ft | 304 kts | 217° |
| 2026-04-21 20:14 | 36.28934 | 0.12330 | 14295 ft | 304 kts | 217° |
| 2026-04-21 20:15 | 36.27199 | 0.10839 | 13959 ft | 304 kts | 217° |
| 2026-04-21 20:15 | 36.25463 | 0.09348 | 13614 ft | 303 kts | 217° |
| 2026-04-21 20:15 | 36.23733 | 0.07862 | 13255 ft | 302 kts | 217° |
| 2026-04-21 20:15 | 36.22006 | 0.06380 | 12914 ft | 301 kts | 217° |
| 2026-04-21 20:16 | 36.20285 | 0.04905 | 12577 ft | 300 kts | 217° |
| 2026-04-21 20:16 | 36.18572 | 0.03436 | 12239 ft | 299 kts | 217° |
| 2026-04-21 20:16 | 36.16866 | 0.01975 | 11905 ft | 297 kts | 217° |
| 2026-04-21 20:16 | 36.15189 | 0.00539 | 11591 ft | 296 kts | 217° |
| 2026-04-21 20:17 | 36.13501 | -0.00906 | 11261 ft | 295 kts | 217° |
| 2026-04-21 20:17 | 36.11815 | -0.02348 | 10936 ft | 294 kts | 217° |
| 2026-04-21 20:17 | 36.10112 | -0.03803 | 10609 ft | 293 kts | 217° |
| 2026-04-21 20:17 | 36.08463 | -0.05212 | 10288 ft | 292 kts | 217° |
| 2026-04-21 20:18 | 36.06799 | -0.06633 | 10084 ft | 287 kts | 217° |
| 2026-04-21 20:18 | 36.05176 | -0.08017 | 9926 ft | 280 kts | 217° |
| 2026-04-21 20:18 | 36.03573 | -0.09385 | 9612 ft | 279 kts | 217° |
| 2026-04-21 20:18 | 36.01975 | -0.10747 | 9306 ft | 278 kts | 217° |
| 2026-04-21 20:19 | 36.00386 | -0.12102 | 8994 ft | 277 kts | 217° |
| 2026-04-21 20:19 | 35.98806 | -0.13449 | 8697 ft | 276 kts | 217° |
| 2026-04-21 20:19 | 35.97229 | -0.14792 | 8400 ft | 275 kts | 217° |
| 2026-04-21 20:19 | 35.95659 | -0.16128 | 8114 ft | 273 kts | 217° |
| 2026-04-21 20:20 | 35.94097 | -0.17456 | 7802 ft | 273 kts | 217° |
| 2026-04-21 20:20 | 35.92534 | -0.18786 | 7499 ft | 273 kts | 217° |
| 2026-04-21 20:20 | 35.90974 | -0.20112 | 7181 ft | 273 kts | 217° |
| 2026-04-21 20:20 | 35.89410 | -0.21440 | 6868 ft | 273 kts | 217° |
| 2026-04-21 20:21 | 35.87844 | -0.22770 | 6559 ft | 273 kts | 217° |
| 2026-04-21 20:21 | 35.86280 | -0.24097 | 6255 ft | 273 kts | 217° |
| 2026-04-21 20:21 | 35.84709 | -0.25431 | 5935 ft | 273 kts | 217° |
| 2026-04-21 20:21 | 35.83142 | -0.26759 | 5630 ft | 273 kts | 217° |
| 2026-04-21 20:22 | 35.81587 | -0.28077 | 5412 ft | 268 kts | 217° |
| 2026-04-21 20:22 | 35.78621 | -0.30586 | 4997 ft | 253 kts | 217° |
| 2026-04-21 20:22 | 35.77190 | -0.31799 | 4795 ft | 253 kts | 217° |
| 2026-04-21 20:23 | 35.75722 | -0.33042 | 4558 ft | 251 kts | 217° |
| 2026-04-21 20:23 | 35.74319 | -0.34227 | 4291 ft | 244 kts | 217° |
| 2026-04-21 20:23 | 35.72940 | -0.35391 | 4048 ft | 238 kts | 216° |
| 2026-04-21 20:23 | 35.71594 | -0.36527 | 3800 ft | 231 kts | 216° |
| 2026-04-21 20:24 | 35.70524 | -0.37919 | 3525 ft | 222 kts | 248° |
| 2026-04-21 20:24 | 35.70038 | -0.39647 | 3403 ft | 205 kts | 250° |
| 2026-04-21 20:24 | 35.69517 | -0.41209 | 3292 ft | 189 kts | 248° |
| 2026-04-21 20:24 | 35.69018 | -0.42646 | 3271 ft | 181 kts | 248° |
| 2026-04-21 20:25 | 35.68524 | -0.44085 | 3108 ft | 184 kts | 248° |
| 2026-04-21 20:25 | 35.68030 | -0.45528 | 2887 ft | 182 kts | 248° |
| 2026-04-21 20:25 | 35.67545 | -0.46949 | 2658 ft | 178 kts | 248° |
| 2026-04-21 20:25 | 35.67073 | -0.48333 | 2416 ft | 173 kts | 248° |
| 2026-04-21 20:26 | 35.66614 | -0.49681 | 2191 ft | 169 kts | 248° |
| 2026-04-21 20:26 | 35.66174 | -0.50972 | 1981 ft | 159 kts | 248° |
| 2026-04-21 20:26 | 35.65756 | -0.52199 | 1787 ft | 156 kts | 248° |
| 2026-04-21 20:26 | 35.65340 | -0.53419 | 1584 ft | 153 kts | 248° |
| 2026-04-21 20:27 | 35.64934 | -0.54610 | 1377 ft | 150 kts | 248° |
| 2026-04-21 20:27 | 35.64536 | -0.55782 | 1175 ft | 148 kts | 248° |
| 2026-04-21 20:27 | 35.64145 | -0.56930 | 966 ft | 144 kts | 247° |
| 2026-04-21 20:27 | 35.63767 | -0.58044 | 782 ft | 145 kts | 247° |
| 2026-04-21 20:28 | 35.63416 | -0.59167 | 618 ft | 136 kts | 246° |
| 2026-04-21 20:28 | 35.63064 | -0.60192 | 413 ft | 123 kts | 245° |
| 2026-04-21 20:28 | 35.62725 | -0.61130 | 308 ft | 114 kts | 245° |
| 2026-04-21 20:28 | 35.62445 | -0.61929 | 302 ft | 92 kts | 246° |
| 2026-04-21 20:29 | 35.62270 | -0.62417 | 305 ft | 22 kts | 233° |
| 2026-04-21 20:29 | 35.62070 | -0.62413 | 305 ft | 48 kts | 158° |
| 2026-04-21 20:29 | 35.61805 | -0.62226 | 306 ft | 36 kts | 112° |
| 2026-04-21 20:29 | 35.61852 | -0.61952 | 307 ft | 33 kts | 67° |
| 2026-04-21 20:30 | 35.61938 | -0.61705 | 306 ft | 30 kts | 67° |
| 2026-04-21 20:30 | 35.62018 | -0.61473 | 308 ft | 29 kts | 69° |
| 2026-04-21 20:30 | 35.61980 | -0.61304 | 307 ft | 20 kts | 82° |
| 2026-04-21 20:30 | 35.62029 | -0.61143 | 306 ft | 20 kts | 67° |
| 2026-04-21 20:31 | 35.62056 | -0.61021 | 307 ft | 4 kts | 120° |
| 2026-04-21 20:31 | 35.62027 | -0.61006 | 306 ft | 5 kts | 177° |
| 2026-04-21 20:31 | 35.62000 | -0.61018 | 308 ft | 2 kts | 200° |
| 2026-04-21 20:31 | 35.61999 | -0.61018 | 308 ft | 0 kts | 200° |